^^
Station Historical Data
Daily Summary for February 14, 2018 Units:  Both    English   Metric
« Previous Day
Next Day »
Daily Weekly Monthly Yearly Custom
  High: Low: Average:
Temperature: TemperatureF °F /  -17.8 °C 5.8 °F /  -14.6 °C 14.6 °F /  -9.7 °C
Dew Point: DewpointF °F /  -17.8 °C 2.8 °F /  -16.2 °C 11.7 °F /  -11.3 °C
Humidity: Humidity % 82 % 88 %
Wind Speed: WindSpeedMPH mph /  0 km/h - 0.3 mph /  0.5 km/h
Wind Gust: WindSpeedGustMPH mph /  0 km/h - -
Wind:- - West
Pressure: PressureIn in /  0 hPa 30.01 in /  1016.1 hPa -
Precipitation: 0.00 in /  0 mm    
Historical Graphs
 
 
Tabular Data for February 14, 2018
Time Temperature Dew Point Pressure Wind Wind Speed Wind Gust Humidity Rainfall Rate (Hourly) solar Conditions
TemperatureF °F /  -17.8 °C DewpointF °F /  -17.8 °C PressureIn in /  0 hPa Calm     Humidity % HourlyPrecipIn in /  0 mm SoftwareType W/m2 Conditions
00:04 9.3 °F /  -12.6 °C 6.4 °F /  -14.2 °C 30.36 in /  1028 hPa Calm     88 % 0.00 in /  0 mm WeatherDisplay:10.37 W/m2 BKN
00:09 9.1 °F /  -12.7 °C 6.3 °F /  -14.3 °C 30.35 in /  1027.7 hPa Calm     88 % 0.00 in /  0 mm WeatherDisplay:10.37 W/m2 BKN
00:14 8.9 °F /  -12.8 °C 5.9 °F /  -14.5 °C 30.35 in /  1027.7 hPa Calm     87 % 0.00 in /  0 mm WeatherDisplay:10.37 W/m2 SCT
00:19 8.8 °F /  -12.9 °C 5.7 °F /  -14.6 °C 30.34 in /  1027.3 hPa Calm     87 % 0.00 in /  0 mm WeatherDisplay:10.37 W/m2 SCT
00:24 8.6 °F /  -13 °C 5.5 °F /  -14.7 °C 30.34 in /  1027.3 hPa Calm     87 % 0.00 in /  0 mm WeatherDisplay:10.37 W/m2 SCT
00:29 8.4 °F /  -13.1 °C 5.3 °F /  -14.8 °C 30.34 in /  1027.3 hPa Calm     87 % 0.00 in /  0 mm WeatherDisplay:10.37 W/m2 SCT
00:34 8.2 °F /  -13.2 °C 5.1 °F /  -14.9 °C 30.34 in /  1027.3 hPa Calm     87 % 0.00 in /  0 mm WeatherDisplay:10.37 W/m2 SCT
00:39 8.1 °F /  -13.3 °C 5.0 °F /  -15 °C 30.34 in /  1027.3 hPa Calm     87 % 0.00 in /  0 mm WeatherDisplay:10.37 W/m2 SCT
00:44 8.0 °F /  -13.3 °C 4.9 °F /  -15.1 °C 30.33 in /  1027 hPa Calm     87 % 0.00 in /  0 mm WeatherDisplay:10.37 W/m2 SCT
00:49 7.9 °F /  -13.4 °C 4.8 °F /  -15.1 °C 30.33 in /  1027 hPa Calm     87 % 0.00 in /  0 mm WeatherDisplay:10.37 W/m2 SCT
00:54 7.7 °F /  -13.5 °C 4.6 °F /  -15.2 °C 30.32 in /  1026.6 hPa Calm     87 % 0.00 in /  0 mm WeatherDisplay:10.37 W/m2 SCT
00:59 7.6 °F /  -13.6 °C 4.5 °F /  -15.3 °C 30.32 in /  1026.6 hPa Calm     87 % 0.00 in /  0 mm WeatherDisplay:10.37 W/m2 SCT
01:04 7.4 °F /  -13.7 °C 4.3 °F /  -15.4 °C 30.31 in /  1026.3 hPa Calm     87 % 0.00 in /  0 mm WeatherDisplay:10.37 W/m2 SCT
01:09 7.3 °F /  -13.7 °C 4.2 °F /  -15.4 °C 30.31 in /  1026.3 hPa Calm     87 % 0.00 in /  0 mm WeatherDisplay:10.37 W/m2 SCT
01:14 7.1 °F /  -13.8 °C 4.1 °F /  -15.5 °C 30.31 in /  1026.3 hPa Calm     87 % 0.00 in /  0 mm WeatherDisplay:10.37 W/m2 BKN
01:19 6.9 °F /  -13.9 °C 3.9 °F /  -15.6 °C 30.30 in /  1026 hPa Calm     87 % 0.00 in /  0 mm WeatherDisplay:10.37 W/m2 BKN
01:24 6.7 °F /  -14.1 °C 3.4 °F /  -15.9 °C 30.30 in /  1026 hPa Calm     86 % 0.00 in /  0 mm WeatherDisplay:10.37 W/m2 BKN
01:29 6.6 °F /  -14.1 °C 3.6 °F /  -15.8 °C 30.30 in /  1026 hPa Calm     87 % 0.00 in /  0 mm WeatherDisplay:10.37 W/m2 BKN
01:34 6.5 °F /  -14.2 °C 3.5 °F /  -15.8 °C 30.29 in /  1025.6 hPa Calm     87 % 0.00 in /  0 mm WeatherDisplay:10.37 W/m2 BKN
01:39 6.4 °F /  -14.2 °C 3.4 °F /  -15.9 °C 30.28 in /  1025.3 hPa Calm     87 % 0.00 in /  0 mm WeatherDisplay:10.37 W/m2 BKN
01:44 6.4 °F /  -14.2 °C 3.4 °F /  -15.9 °C 30.28 in /  1025.3 hPa Calm     87 % 0.00 in /  0 mm WeatherDisplay:10.37 W/m2 BKN
01:49 6.3 °F /  -14.3 °C 3.3 °F /  -15.9 °C 30.28 in /  1025.3 hPa Calm     87 % 0.00 in /  0 mm WeatherDisplay:10.37 W/m2 BKN
01:54 6.2 °F /  -14.3 °C 3.2 °F /  -16 °C 30.27 in /  1024.9 hPa Calm     87 % 0.00 in /  0 mm WeatherDisplay:10.37 W/m2 BKN
02:04 6.0 °F /  -14.4 °C 3.0 °F /  -16.1 °C 30.27 in /  1024.9 hPa Calm     87 % 0.00 in /  0 mm WeatherDisplay:10.37 W/m2 BKN
02:09 5.9 °F /  -14.5 °C 2.9 °F /  -16.2 °C 30.26 in /  1024.6 hPa Calm     87 % 0.00 in /  0 mm WeatherDisplay:10.37 W/m2 BKN
02:14 5.9 °F /  -14.5 °C 2.8 °F /  -16.2 °C 30.26 in /  1024.6 hPa Calm     87 % 0.00 in /  0 mm WeatherDisplay:10.37 W/m2 BKN
02:19 5.8 °F /  -14.6 °C 2.8 °F /  -16.2 °C 30.25 in /  1024.3 hPa Calm     87 % 0.00 in /  0 mm WeatherDisplay:10.37 W/m2 BKN
02:24 5.8 °F /  -14.6 °C 2.8 °F /  -16.2 °C 30.25 in /  1024.3 hPa Calm     87 % 0.00 in /  0 mm WeatherDisplay:10.37 W/m2 BKN
02:29 5.8 °F /  -14.6 °C 2.8 °F /  -16.2 °C 30.25 in /  1024.3 hPa Calm     87 % 0.00 in /  0 mm WeatherDisplay:10.37 W/m2 BKN
02:34 5.8 °F /  -14.6 °C 3.0 °F /  -16.1 °C 30.26 in /  1024.6 hPa Calm     88 % 0.00 in /  0 mm WeatherDisplay:10.37 W/m2 BKN
02:39 5.9 °F /  -14.5 °C 3.1 °F /  -16.1 °C 30.26 in /  1024.6 hPa Calm     88 % 0.00 in /  0 mm WeatherDisplay:10.37 W/m2 BKN
02:44 5.9 °F /  -14.5 °C 3.1 °F /  -16.1 °C 30.25 in /  1024.3 hPa Calm     88 % 0.00 in /  0 mm WeatherDisplay:10.37 W/m2 BKN
02:49 6.0 °F /  -14.4 °C 3.2 °F /  -16 °C 30.25 in /  1024.3 hPa Calm   1.0 mph /  1.6 km/h 88 % 0.00 in /  0 mm WeatherDisplay:10.37 W/m2 BKN
02:54 6.2 °F /  -14.3 °C 3.4 °F /  -15.9 °C 30.25 in /  1024.3 hPa Calm   1.0 mph /  1.6 km/h 88 % 0.00 in /  0 mm WeatherDisplay:10.37 W/m2 BKN
02:59 6.5 °F /  -14.2 °C 3.9 °F /  -15.6 °C 30.25 in /  1024.3 hPa Calm   1.0 mph /  1.6 km/h 89 % 0.00 in /  0 mm WeatherDisplay:10.37 W/m2 BKN
03:04 6.7 °F /  -14.1 °C 4.1 °F /  -15.5 °C 30.25 in /  1024.3 hPa Calm     89 % 0.00 in /  0 mm WeatherDisplay:10.37 W/m2 BKN
03:09 6.8 °F /  -14 °C 4.2 °F /  -15.4 °C 30.24 in /  1023.9 hPa Calm   1.0 mph /  1.6 km/h 89 % 0.00 in /  0 mm WeatherDisplay:10.37 W/m2 BKN
03:14 7.1 °F /  -13.8 °C 4.5 °F /  -15.3 °C 30.24 in /  1023.9 hPa Calm     89 % 0.00 in /  0 mm WeatherDisplay:10.37 W/m2 BKN
03:19 7.2 °F /  -13.8 °C 4.6 °F /  -15.2 °C 30.23 in /  1023.6 hPa Calm     89 % 0.00 in /  0 mm WeatherDisplay:10.37 W/m2 BKN
03:24 7.4 °F /  -13.7 °C 4.8 °F /  -15.1 °C 30.22 in /  1023.2 hPa Calm     89 % 0.00 in /  0 mm WeatherDisplay:10.37 W/m2 BKN
03:30 7.5 °F /  -13.6 °C 4.9 °F /  -15.1 °C 30.22 in /  1023.2 hPa Calm     89 % 0.00 in /  0 mm WeatherDisplay:10.37 W/m2 BKN
03:39 7.7 °F /  -13.5 °C 5.1 °F /  -14.9 °C 30.21 in /  1022.9 hPa Calm     89 % 0.00 in /  0 mm WeatherDisplay:10.37 W/m2 BKN
03:44 7.8 °F /  -13.4 °C 5.2 °F /  -14.9 °C 30.21 in /  1022.9 hPa Calm     89 % 0.00 in /  0 mm WeatherDisplay:10.37 W/m2 BKN
03:49 7.9 °F /  -13.4 °C 5.3 °F /  -14.8 °C 30.20 in /  1022.6 hPa Calm   1.0 mph /  1.6 km/h 89 % 0.00 in /  0 mm WeatherDisplay:10.37 W/m2 BKN
03:54 7.9 °F /  -13.4 °C 5.3 °F /  -14.8 °C 30.20 in /  1022.6 hPa Calm     89 % 0.00 in /  0 mm WeatherDisplay:10.37 W/m2 BKN
03:59 8.0 °F /  -13.3 °C 5.4 °F /  -14.8 °C 30.20 in /  1022.6 hPa Calm     89 % 0.00 in /  0 mm WeatherDisplay:10.37 W/m2 BKN
04:04 8.1 °F /  -13.3 °C 5.5 °F /  -14.7 °C 30.19 in /  1022.2 hPa Calm     89 % 0.00 in /  0 mm WeatherDisplay:10.37 W/m2 BKN
04:10 8.1 °F /  -13.3 °C 5.5 °F /  -14.7 °C 30.19 in /  1022.2 hPa Calm     89 % 0.00 in /  0 mm WeatherDisplay:10.37 W/m2 BKN
04:19 8.2 °F /  -13.2 °C 5.6 °F /  -14.7 °C 30.18 in /  1021.9 hPa Calm     89 % 0.00 in /  0 mm WeatherDisplay:10.37 W/m2 BKN
04:24 8.3 °F /  -13.2 °C 5.7 °F /  -14.6 °C 30.18 in /  1021.9 hPa Calm     89 % 0.00 in /  0 mm WeatherDisplay:10.37 W/m2 BKN
04:29 8.3 °F /  -13.2 °C 5.8 °F /  -14.6 °C 30.18 in /  1021.9 hPa Calm     89 % 0.00 in /  0 mm WeatherDisplay:10.37 W/m2 BKN
04:34 8.4 °F /  -13.1 °C 5.8 °F /  -14.6 °C 30.18 in /  1021.9 hPa Calm     89 % 0.00 in /  0 mm WeatherDisplay:10.37 W/m2 BKN
04:39 8.4 °F /  -13.1 °C 5.8 °F /  -14.6 °C 30.18 in /  1021.9 hPa Calm     89 % 0.00 in /  0 mm WeatherDisplay:10.37 W/m2 BKN
04:44 8.3 °F /  -13.2 °C 5.8 °F /  -14.6 °C 30.18 in /  1021.9 hPa Calm     89 % 0.00 in /  0 mm WeatherDisplay:10.37 W/m2 BKN
04:49 8.3 °F /  -13.2 °C 5.7 °F /  -14.6 °C 30.18 in /  1021.9 hPa Calm     89 % 0.00 in /  0 mm WeatherDisplay:10.37 W/m2 BKN
04:54 8.2 °F /  -13.2 °C 5.6 °F /  -14.7 °C 30.18 in /  1021.9 hPa Calm     89 % 0.00 in /  0 mm WeatherDisplay:10.37 W/m2 BKN
04:59 8.2 °F /  -13.2 °C 5.6 °F /  -14.7 °C 30.18 in /  1021.9 hPa Calm     89 % 0.00 in /  0 mm WeatherDisplay:10.37 W/m2 BKN
05:04 8.2 °F /  -13.2 °C 5.4 °F /  -14.8 °C 30.18 in /  1021.9 hPa Calm     88 % 0.00 in /  0 mm WeatherDisplay:10.37 W/m2 BKN
05:09 8.1 °F /  -13.3 °C 5.3 °F /  -14.8 °C 30.18 in /  1021.9 hPa Calm     88 % 0.00 in /  0 mm WeatherDisplay:10.37 W/m2 BKN
05:14 8.1 °F /  -13.3 °C 5.5 °F /  -14.7 °C 30.18 in /  1021.9 hPa Calm     89 % 0.00 in /  0 mm WeatherDisplay:10.37 W/m2 OVC
05:19 8.2 °F /  -13.2 °C 5.6 °F /  -14.7 °C 30.17 in /  1021.6 hPa Calm     89 % 0.00 in /  0 mm WeatherDisplay:10.37 W/m2 OVC
05:24 8.2 °F /  -13.2 °C 5.6 °F /  -14.7 °C 30.17 in /  1021.6 hPa Calm     89 % 0.00 in /  0 mm WeatherDisplay:10.37 W/m2 OVC
05:29 8.4 °F /  -13.1 °C 5.8 °F /  -14.6 °C 30.17 in /  1021.6 hPa Calm     89 % 0.00 in /  0 mm WeatherDisplay:10.37 W/m2 OVC
05:34 8.5 °F /  -13.1 °C 5.9 °F /  -14.5 °C 30.17 in /  1021.6 hPa Calm     89 % 0.00 in /  0 mm WeatherDisplay:10.37 W/m2 OVC
05:39 8.6 °F /  -13 °C 6.0 °F /  -14.4 °C 30.16 in /  1021.2 hPa Calm     89 % 0.00 in /  0 mm WeatherDisplay:10.37 W/m2 OVC
05:44 8.8 °F /  -12.9 °C 6.2 °F /  -14.3 °C 30.16 in /  1021.2 hPa Calm     89 % 0.00 in /  0 mm WeatherDisplay:10.37 W/m2 OVC
05:49 8.9 °F /  -12.8 °C 6.3 °F /  -14.3 °C 30.15 in /  1020.9 hPa Calm     89 % 0.00 in /  0 mm WeatherDisplay:10.37 W/m2 OVC
05:54 9.1 °F /  -12.7 °C 6.5 °F /  -14.2 °C 30.15 in /  1020.9 hPa Calm     89 % 0.00 in /  0 mm WeatherDisplay:10.37 W/m2 OVC
05:59 9.2 °F /  -12.7 °C 6.9 °F /  -13.9 °C 30.15 in /  1020.9 hPa Calm     90 % 0.00 in /  0 mm WeatherDisplay:10.37 W/m2 OVC
06:04 9.3 °F /  -12.6 °C 7.0 °F /  -13.9 °C 30.15 in /  1020.9 hPa Calm     90 % 0.00 in /  0 mm WeatherDisplay:10.37 W/m2 OVC
06:09 9.5 °F /  -12.5 °C 7.2 °F /  -13.8 °C 30.15 in /  1020.9 hPa Calm     90 % 0.00 in /  0 mm WeatherDisplay:10.37 W/m2 OVC
06:14 9.6 °F /  -12.4 °C 7.2 °F /  -13.8 °C 30.15 in /  1020.9 hPa Calm     90 % 0.00 in /  0 mm WeatherDisplay:10.37 W/m2 OVC
06:19 9.7 °F /  -12.4 °C 7.4 °F /  -13.7 °C 30.14 in /  1020.5 hPa Calm     90 % 0.00 in /  0 mm WeatherDisplay:10.37 W/m2 OVC
06:24 9.7 °F /  -12.4 °C 7.4 °F /  -13.7 °C 30.14 in /  1020.5 hPa Calm     90 % 0.00 in /  0 mm WeatherDisplay:10.37 W/m2 OVC
06:29 9.8 °F /  -12.3 °C 7.5 °F /  -13.6 °C 30.15 in /  1020.9 hPa Calm     90 % 0.00 in /  0 mm WeatherDisplay:10.37 W/m2 OVC
06:34 9.9 °F /  -12.3 °C 7.6 °F /  -13.6 °C 30.15 in /  1020.9 hPa Calm     90 % 0.00 in /  0 mm WeatherDisplay:10.37 W/m2 OVC
06:39 10.1 °F /  -12.2 °C 7.8 °F /  -13.4 °C 30.14 in /  1020.5 hPa Calm     90 % 0.00 in /  0 mm WeatherDisplay:10.37 W/m2 OVC
06:44 10.2 °F /  -12.1 °C 7.9 °F /  -13.4 °C 30.14 in /  1020.5 hPa Calm     90 % 0.00 in /  0 mm WeatherDisplay:10.37 W/m2 OVC
06:49 10.3 °F /  -12.1 °C 8.0 °F /  -13.3 °C 30.14 in /  1020.5 hPa Calm     90 % 0.00 in /  0 mm WeatherDisplay:10.37 W/m2 OVC
06:54 10.5 °F /  -11.9 °C 8.1 °F /  -13.3 °C 30.13 in /  1020.2 hPa Calm   1.0 mph /  1.6 km/h 90 % 0.00 in /  0 mm WeatherDisplay:10.37 W/m2 OVC
06:59 10.7 °F /  -11.8 °C 8.4 °F /  -13.1 °C 30.14 in /  1020.5 hPa Calm   2.0 mph /  3.2 km/h 90 % 0.00 in /  0 mm WeatherDisplay:10.37 W/m2 OVC
07:04 11.0 °F /  -11.7 °C 8.9 °F /  -12.8 °C 30.14 in /  1020.5 hPa Calm     91 % 0.00 in /  0 mm WeatherDisplay:10.37 W/m2 OVC
07:09 11.3 °F /  -11.5 °C 9.2 °F /  -12.7 °C 30.13 in /  1020.2 hPa Calm   2.0 mph /  3.2 km/h 91 % 0.00 in /  0 mm WeatherDisplay:10.37 W/m2 OVC
07:14 11.5 °F /  -11.4 °C 9.4 °F /  -12.6 °C 30.13 in /  1020.2 hPa Calm     91 % 0.00 in /  0 mm WeatherDisplay:10.37 W/m2 BKN
07:19 11.8 °F /  -11.2 °C 9.7 °F /  -12.4 °C 30.13 in /  1020.2 hPa Calm   1.0 mph /  1.6 km/h 91 % 0.00 in /  0 mm WeatherDisplay:10.37 W/m2 BKN
07:24 12.1 °F /  -11.1 °C 10.0 °F /  -12.2 °C 30.13 in /  1020.2 hPa Calm   2.0 mph /  3.2 km/h 91 % 0.00 in /  0 mm WeatherDisplay:10.37 W/m2 BKN
07:29 12.4 °F /  -10.9 °C 10.3 °F /  -12.1 °C 30.12 in /  1019.9 hPa Calm     91 % 0.00 in /  0 mm WeatherDisplay:10.37 W/m2 BKN
07:34 12.7 °F /  -10.7 °C 10.8 °F /  -11.8 °C 30.12 in /  1019.9 hPa Calm     92 % 0.00 in /  0 mm WeatherDisplay:10.37 W/m2 BKN
07:39 13.0 °F /  -10.6 °C 11.2 °F /  -11.6 °C 30.12 in /  1019.9 hPa Calm     92 % 0.00 in /  0 mm WeatherDisplay:10.37 W/m2 BKN
07:44 13.4 °F /  -10.3 °C 11.5 °F /  -11.4 °C 30.12 in /  1019.9 hPa Calm   1.0 mph /  1.6 km/h 92 % 0.00 in /  0 mm WeatherDisplay:10.37 W/m2 BKN
07:49 13.7 °F /  -10.2 °C 11.8 °F /  -11.2 °C 30.12 in /  1019.9 hPa Calm   1.0 mph /  1.6 km/h 92 % 0.00 in /  0 mm WeatherDisplay:10.37 W/m2 BKN
07:54 14.0 °F /  -10 °C 12.1 °F /  -11.1 °C 30.12 in /  1019.9 hPa Calm     92 % 0.00 in /  0 mm WeatherDisplay:10.37 W/m2 BKN
08:04 14.7 °F /  -9.6 °C 12.8 °F /  -10.7 °C 30.12 in /  1019.9 hPa Calm     92 % 0.00 in /  0 mm WeatherDisplay:10.37 W/m2 BKN
08:09 14.9 °F /  -9.5 °C 13.0 °F /  -10.6 °C 30.11 in /  1019.5 hPa Calm   3.0 mph /  4.8 km/h 92 % 0.00 in /  0 mm WeatherDisplay:10.37 W/m2 BKN
08:14 15.2 °F /  -9.3 °C 13.3 °F /  -10.4 °C 30.11 in /  1019.5 hPa Calm   3.0 mph /  4.8 km/h 92 % 0.00 in /  0 mm WeatherDisplay:10.37 W/m2 BKN
08:19 15.6 °F /  -9.1 °C 13.7 °F /  -10.2 °C 30.11 in /  1019.5 hPa Calm     92 % 0.00 in /  0 mm WeatherDisplay:10.37 W/m2 BKN
08:24 16.0 °F /  -8.9 °C 14.1 °F /  -9.9 °C 30.11 in /  1019.5 hPa Calm   1.0 mph /  1.6 km/h 92 % 0.00 in /  0 mm WeatherDisplay:10.37 W/m2 BKN
08:29 16.2 °F /  -8.8 °C 14.1 °F /  -9.9 °C 30.11 in /  1019.5 hPa Calm   1.0 mph /  1.6 km/h 91 % 0.00 in /  0 mm WeatherDisplay:10.37 W/m2 BKN
08:34 16.6 °F /  -8.6 °C 14.7 °F /  -9.6 °C 30.11 in /  1019.5 hPa Calm   2.0 mph /  3.2 km/h 92 % 0.00 in /  0 mm WeatherDisplay:10.37 W/m2 BKN
08:39 17.0 °F /  -8.3 °C 15.1 °F /  -9.4 °C 30.11 in /  1019.5 hPa Calm   2.0 mph /  3.2 km/h 92 % 0.00 in /  0 mm WeatherDisplay:10.37 W/m2 BKN
08:44 17.4 °F /  -8.1 °C 15.4 °F /  -9.2 °C 30.11 in /  1019.5 hPa Calm     92 % 0.00 in /  0 mm WeatherDisplay:10.37 W/m2 BKN
08:49 17.8 °F /  -7.9 °C 15.6 °F /  -9.1 °C 30.11 in /  1019.5 hPa Calm   1.0 mph /  1.6 km/h 91 % 0.00 in /  0 mm WeatherDisplay:10.37 W/m2 BKN
08:54 18.1 °F /  -7.7 °C 15.9 °F /  -8.9 °C 30.11 in /  1019.5 hPa Calm   2.0 mph /  3.2 km/h 91 % 0.00 in /  0 mm WeatherDisplay:10.37 W/m2 BKN
08:59 18.5 °F /  -7.5 °C 16.4 °F /  -8.7 °C 30.11 in /  1019.5 hPa Calm   2.0 mph /  3.2 km/h 91 % 0.00 in /  0 mm WeatherDisplay:10.37 W/m2 BKN
09:04 19.1 °F /  -7.2 °C 16.9 °F /  -8.4 °C 30.11 in /  1019.5 hPa Calm   2.0 mph /  3.2 km/h 91 % 0.00 in /  0 mm WeatherDisplay:10.37 W/m2 BKN
09:09 19.7 °F /  -6.8 °C 17.5 °F /  -8.1 °C 30.10 in /  1019.2 hPa Calm   2.0 mph /  3.2 km/h 91 % 0.00 in /  0 mm WeatherDisplay:10.37 W/m2 BKN
09:14 20.5 °F /  -6.4 °C 18.3 °F /  -7.6 °C 30.10 in /  1019.2 hPa WNW 2.0 mph /  3.2 km/h 6.0 mph /  9.7 km/h 91 % 0.00 in /  0 mm WeatherDisplay:10.37 W/m2 BKN
09:19 21.5 °F /  -5.8 °C 19.3 °F /  -7.1 °C 30.10 in /  1019.2 hPa Calm   4.0 mph /  6.4 km/h 91 % 0.00 in /  0 mm WeatherDisplay:10.37 W/m2 BKN
09:24 22.3 °F /  -5.4 °C 20.1 °F /  -6.6 °C 30.09 in /  1018.8 hPa West 1.0 mph /  1.6 km/h 4.0 mph /  6.4 km/h 91 % 0.00 in /  0 mm WeatherDisplay:10.37 W/m2 BKN
09:29 23.3 °F /  -4.8 °C 21.0 °F /  -6.1 °C 30.09 in /  1018.8 hPa Calm   4.0 mph /  6.4 km/h 91 % 0.00 in /  0 mm WeatherDisplay:10.37 W/m2 BKN
09:34 24.1 °F /  -4.4 °C 21.6 °F /  -5.8 °C 30.08 in /  1018.5 hPa WSW 1.0 mph /  1.6 km/h 3.0 mph /  4.8 km/h 90 % 0.00 in /  0 mm WeatherDisplay:10.37 W/m2 BKN
09:39 24.9 °F /  -3.9 °C 22.4 °F /  -5.3 °C 30.08 in /  1018.5 hPa West 1.0 mph /  1.6 km/h 3.0 mph /  4.8 km/h 90 % 0.00 in /  0 mm WeatherDisplay:10.37 W/m2 BKN
09:44 25.5 °F /  -3.6 °C 22.7 °F /  -5.2 °C 30.08 in /  1018.5 hPa Calm   5.0 mph /  8 km/h 89 % 0.00 in /  0 mm WeatherDisplay:10.37 W/m2 BKN
09:49 25.9 °F /  -3.4 °C 23.1 °F /  -4.9 °C 30.08 in /  1018.5 hPa Calm   1.0 mph /  1.6 km/h 89 % 0.00 in /  0 mm WeatherDisplay:10.37 W/m2 BKN
09:54 26.4 °F /  -3.1 °C 23.4 °F /  -4.8 °C 30.08 in /  1018.5 hPa West 1.0 mph /  1.6 km/h 7.0 mph /  11.3 km/h 88 % 0.00 in /  0 mm WeatherDisplay:10.37 W/m2 BKN
09:59 27.0 °F /  -2.8 °C 23.9 °F /  -4.5 °C 30.08 in /  1018.5 hPa Calm   6.0 mph /  9.7 km/h 88 % 0.00 in /  0 mm WeatherDisplay:10.37 W/m2 BKN
10:04 27.4 °F /  -2.6 °C 23.7 °F /  -4.6 °C 30.08 in /  1018.5 hPa WSW 1.0 mph /  1.6 km/h 8.0 mph /  12.9 km/h 86 % 0.00 in /  0 mm WeatherDisplay:10.37 W/m2 BKN
10:09 27.7 °F /  -2.4 °C 23.8 °F /  -4.6 °C 30.07 in /  1018.2 hPa West 1.0 mph /  1.6 km/h 5.0 mph /  8 km/h 85 % 0.00 in /  0 mm WeatherDisplay:10.37 W/m2 BKN
10:14 28.0 °F /  -2.2 °C 24.1 °F /  -4.4 °C 30.07 in /  1018.2 hPa West 2.0 mph /  3.2 km/h 6.0 mph /  9.7 km/h 85 % 0.00 in /  0 mm WeatherDisplay:10.37 W/m2 OVC
10:19 28.4 °F /  -2 °C 24.1 °F /  -4.4 °C 30.07 in /  1018.2 hPa West 2.0 mph /  3.2 km/h 7.0 mph /  11.3 km/h 84 % 0.00 in /  0 mm WeatherDisplay:10.37 W/m2 OVC
10:24 28.6 °F /  -1.9 °C 24.4 °F /  -4.2 °C 30.07 in /  1018.2 hPa WNW 2.0 mph /  3.2 km/h 7.0 mph /  11.3 km/h 84 % 0.00 in /  0 mm WeatherDisplay:10.37 W/m2 OVC
10:29 28.8 °F /  -1.8 °C 24.3 °F /  -4.3 °C 30.07 in /  1018.2 hPa WSW 2.0 mph /  3.2 km/h 7.0 mph /  11.3 km/h 83 % 0.00 in /  0 mm WeatherDisplay:10.37 W/m2 OVC
10:34 29.0 °F /  -1.7 °C 24.5 °F /  -4.2 °C 30.06 in /  1017.8 hPa WSW 1.0 mph /  1.6 km/h 8.0 mph /  12.9 km/h 83 % 0.00 in /  0 mm WeatherDisplay:10.37 W/m2 OVC
10:39 29.3 °F /  -1.5 °C 24.8 °F /  -4 °C 30.06 in /  1017.8 hPa WSW 1.0 mph /  1.6 km/h 6.0 mph /  9.7 km/h 83 % 0.00 in /  0 mm WeatherDisplay:10.37 W/m2 OVC
10:44 29.5 °F /  -1.4 °C 24.7 °F /  -4.1 °C 30.06 in /  1017.8 hPa West 1.0 mph /  1.6 km/h 6.0 mph /  9.7 km/h 82 % 0.00 in /  0 mm WeatherDisplay:10.37 W/m2 OVC
10:49 29.7 °F /  -1.3 °C 25.2 °F /  -3.8 °C 30.06 in /  1017.8 hPa Calm   4.0 mph /  6.4 km/h 83 % 0.00 in /  0 mm WeatherDisplay:10.37 W/m2 OVC
10:54 29.9 °F /  -1.2 °C 25.4 °F /  -3.7 °C 30.05 in /  1017.5 hPa Calm   3.0 mph /  4.8 km/h 83 % 0.00 in /  0 mm WeatherDisplay:10.37 W/m2 OVC
10:59 30.1 °F /  -1.1 °C 25.6 °F /  -3.6 °C 30.05 in /  1017.5 hPa Calm   3.0 mph /  4.8 km/h 83 % 0.00 in /  0 mm WeatherDisplay:10.37 W/m2 OVC
11:04 30.4 °F /  -0.9 °C 26.1 °F /  -3.3 °C 30.05 in /  1017.5 hPa NW 1.0 mph /  1.6 km/h 4.0 mph /  6.4 km/h 84 % 0.00 in /  0 mm WeatherDisplay:10.37 W/m2 OVC
11:09 30.6 °F /  -0.8 °C 26.0 °F /  -3.3 °C 30.05 in /  1017.5 hPa NNW 1.0 mph /  1.6 km/h 8.0 mph /  12.9 km/h 83 % 0.00 in /  0 mm WeatherDisplay:10.37 W/m2 OVC
11:14 30.8 °F /  -0.7 °C 26.3 °F /  -3.2 °C 30.05 in /  1017.5 hPa NW 1.0 mph /  1.6 km/h 5.0 mph /  8 km/h 83 % 0.00 in /  0 mm WeatherDisplay:10.37 W/m2 OVC
11:19 31.1 °F /  -0.5 °C 26.5 °F /  -3.1 °C 30.05 in /  1017.5 hPa Calm   3.0 mph /  4.8 km/h 83 % 0.00 in /  0 mm WeatherDisplay:10.37 W/m2 OVC
11:24 31.2 °F /  -0.4 °C 26.6 °F /  -3 °C 30.05 in /  1017.5 hPa WNW 1.0 mph /  1.6 km/h 6.0 mph /  9.7 km/h 83 % 0.00 in /  0 mm WeatherDisplay:10.37 W/m2 OVC
11:29 31.3 °F /  -0.4 °C 26.7 °F /  -2.9 °C 30.05 in /  1017.5 hPa West 2.0 mph /  3.2 km/h 6.0 mph /  9.7 km/h 83 % 0.00 in /  0 mm WeatherDisplay:10.37 W/m2 OVC
11:34 31.5 °F /  -0.3 °C 26.9 °F /  -2.8 °C 30.04 in /  1017.2 hPa WSW 1.0 mph /  1.6 km/h 6.0 mph /  9.7 km/h 83 % 0.00 in /  0 mm WeatherDisplay:10.37 W/m2 OVC
11:39 31.6 °F /  -0.2 °C 27.1 °F /  -2.7 °C 30.04 in /  1017.2 hPa WSW 1.0 mph /  1.6 km/h 6.0 mph /  9.7 km/h 83 % 0.00 in /  0 mm WeatherDisplay:10.37 W/m2 OVC
11:44 31.9 °F /  -0.1 °C 27.3 °F /  -2.6 °C 30.03 in /  1016.8 hPa Calm   6.0 mph /  9.7 km/h 83 % 0.00 in /  0 mm WeatherDisplay:10.37 W/m2 OVC
11:49 32.2 °F /  0.1 °C 27.7 °F /  -2.4 °C 30.03 in /  1016.8 hPa WNW 2.0 mph /  3.2 km/h 7.0 mph /  11.3 km/h 83 % 0.00 in /  0 mm WeatherDisplay:10.37 W/m2 OVC
11:54 32.5 °F /  0.3 °C 28.2 °F /  -2.1 °C 30.02 in /  1016.5 hPa WNW 3.0 mph /  4.8 km/h 12.0 mph /  19.3 km/h 84 % 0.00 in /  0 mm WeatherDisplay:10.37 W/m2 OVC
11:59 32.8 °F /  0.4 °C 28.5 °F /  -1.9 °C 30.02 in /  1016.5 hPa WSW 1.0 mph /  1.6 km/h 12.0 mph /  19.3 km/h 84 % 0.00 in /  0 mm WeatherDisplay:10.37 W/m2 OVC
12:04 33.1 °F /  0.6 °C 28.8 °F /  -1.8 °C 30.02 in /  1016.5 hPa West 1.0 mph /  1.6 km/h 8.0 mph /  12.9 km/h 84 % 0.00 in /  0 mm WeatherDisplay:10.37 W/m2 OVC
12:09 33.3 °F /  0.7 °C 29.0 °F /  -1.7 °C 30.01 in /  1016.1 hPa WNW 2.0 mph /  3.2 km/h 7.0 mph /  11.3 km/h 84 % 0.00 in /  0 mm WeatherDisplay:10.37 W/m2 OVC
12:14 33.5 °F /  0.8 °C 29.2 °F /  -1.6 °C 30.01 in /  1016.1 hPa WSW 1.0 mph /  1.6 km/h 9.0 mph /  14.5 km/h 84 % 0.00 in /  0 mm WeatherDisplay:10.37 W/m2 OVC
12:24 34.2 °F /  1.2 °C 29.9 °F /  -1.2 °C 30.01 in /  1016.1 hPa WSW 2.0 mph /  3.2 km/h 10.0 mph /  16.1 km/h 84 % 0.00 in /  0 mm WeatherDisplay:10.37 W/m2 OVC
Juneau County Weather
Compliments of Weather Underground - 2.25 mb